createdAt,value
2017-11-03T00:01:04.623Z,93.6
2017-11-03T00:02:14.920Z,94.08
2017-11-03T00:03:25.395Z,93.7
2017-11-03T00:04:35.922Z,93.79
2017-11-03T00:05:46.386Z,93.79
2017-11-03T00:06:56.533Z,93.79
2017-11-03T00:08:07.003Z,93.79
2017-11-03T00:09:17.463Z,93.7
2017-11-03T00:10:28.034Z,93.7
2017-11-03T00:11:38.712Z,93.6
2017-11-03T00:12:49.152Z,93.22
2017-11-03T00:13:59.731Z,93.03
2017-11-03T00:15:10.194Z,93.51
2017-11-03T00:16:20.773Z,93.22
2017-11-03T00:17:31.432Z,93.22
2017-11-03T00:18:41.898Z,93.32
2017-11-03T00:19:52.588Z,93.41
2017-11-03T00:21:03.072Z,93.32
2017-11-03T00:22:13.530Z,93.51
2017-11-03T00:23:24.100Z,93.41
2017-11-03T00:24:34.592Z,93.51
2017-11-03T00:25:45.512Z,93.41
2017-11-03T00:26:55.981Z,93.51
2017-11-03T00:28:06.436Z,93.41
2017-11-03T00:29:17.056Z,93.22
2017-11-03T00:30:27.187Z,93.22
2017-11-03T00:31:37.641Z,93.22
2017-11-03T00:32:48.470Z,93.32
2017-11-03T00:33:58.910Z,93.32
2017-11-03T00:35:09.557Z,93.03
2017-11-03T00:36:20.003Z,93.6
2017-11-03T00:37:30.459Z,93.7
2017-11-03T00:38:40.952Z,93.98
2017-11-03T00:39:51.443Z,93.7
2017-11-03T00:41:01.909Z,93.7
2017-11-03T00:42:12.361Z,93.7
2017-11-03T00:43:22.817Z,93.79
2017-11-03T00:44:33.280Z,93.89
2017-11-03T00:45:43.511Z,93.79
2017-11-03T00:46:53.977Z,93.79
2017-11-03T00:48:04.483Z,93.79
2017-11-03T00:49:14.931Z,93.6
2017-11-03T00:50:25.397Z,93.79
2017-11-03T00:51:35.855Z,93.6
2017-11-03T00:52:46.025Z,93.79
2017-11-03T00:53:56.652Z,93.79
2017-11-03T00:55:07.222Z,93.6
2017-11-03T00:56:17.399Z,93.79
2017-11-03T00:57:27.880Z,93.79
2017-11-03T00:58:38.573Z,93.7
2017-11-03T00:59:49.070Z,93.98
2017-11-03T01:00:59.509Z,93.6
2017-11-03T01:02:10.090Z,93.79
2017-11-03T01:03:20.589Z,93.98
2017-11-03T01:04:31.028Z,93.51
2017-11-03T01:05:41.499Z,93.51
2017-11-03T01:06:52.156Z,93.7
2017-11-03T01:08:02.715Z,93.7
2017-11-03T01:09:13.384Z,93.98
2017-11-03T01:10:23.865Z,93.51
2017-11-03T01:11:34.348Z,93.7
2017-11-03T01:12:44.835Z,93.7
2017-11-03T01:13:55.306Z,93.51
2017-11-03T01:15:05.807Z,93.89
2017-11-03T01:16:16.583Z,93.51
2017-11-03T01:17:27.027Z,93.7
2017-11-03T01:18:37.506Z,93.7
2017-11-03T01:19:47.956Z,93.79
2017-11-03T01:20:58.438Z,93.7
2017-11-03T01:22:08.915Z,93.79
2017-11-03T01:23:19.388Z,93.51
2017-11-03T01:24:29.873Z,93.6
2017-11-03T01:25:40.377Z,93.51
2017-11-03T01:26:50.501Z,93.98
2017-11-03T01:28:00.644Z,93.98
2017-11-03T01:29:11.101Z,93.89
2017-11-03T01:30:21.236Z,93.79
2017-11-03T01:31:31.682Z,93.79
2017-11-03T01:32:42.166Z,94.17
2017-11-03T01:33:52.637Z,93.79
2017-11-03T01:35:03.111Z,93.7
2017-11-03T01:36:13.681Z,93.51
2017-11-03T01:37:24.204Z,93.79
2017-11-03T01:38:34.731Z,93.7
2017-11-03T01:39:45.459Z,93.7
2017-11-03T01:40:56.108Z,93.89
2017-11-03T01:42:06.559Z,93.7
2017-11-03T01:43:17.128Z,93.79
2017-11-03T01:44:27.589Z,93.7
2017-11-03T01:45:38.256Z,93.55
2017-11-03T01:46:48.708Z,94.08
2017-11-03T01:47:59.185Z,93.98
2017-11-03T01:49:09.653Z,93.51
2017-11-03T01:50:20.100Z,93.51
2017-11-03T01:51:30.622Z,93.7
2017-11-03T01:52:41.140Z,93.7
2017-11-03T01:53:51.614Z,93.89
2017-11-03T01:55:01.869Z,93.79
2017-11-03T01:56:12.460Z,93.79
2017-11-03T01:57:22.910Z,93.79
2017-11-03T01:58:33.420Z,93.74
2017-11-03T01:59:43.915Z,93.79
2017-11-03T02:00:54.058Z,93.89
2017-11-03T02:02:04.508Z,93.89
2017-11-03T02:03:15.015Z,93.98
2017-11-03T02:04:25.483Z,93.51
2017-11-03T02:05:35.954Z,93.65
2017-11-03T02:06:46.492Z,93.7
2017-11-03T02:07:56.977Z,94.03
2017-11-03T02:09:07.409Z,93.94
2017-11-03T02:10:17.973Z,94.03
2017-11-03T02:11:28.417Z,94.03
2017-11-03T02:12:38.887Z,93.84
2017-11-03T02:13:49.353Z,94.32
2017-11-03T02:14:59.481Z,93.94
2017-11-03T02:16:10.050Z,93.94
2017-11-03T02:17:20.574Z,93.74
2017-11-03T02:18:31.075Z,93.74
2017-11-03T02:19:41.551Z,93.74
2017-11-03T02:20:51.609Z,93.74
2017-11-03T02:22:02.354Z,93.74
2017-11-03T02:23:12.910Z,93.65
2017-11-03T02:24:23.338Z,93.65
2017-11-03T02:25:33.838Z,93.65
2017-11-03T02:26:44.272Z,93.94
2017-11-03T02:27:54.780Z,93.65
2017-11-03T02:29:05.228Z,93.94
2017-11-03T02:30:15.691Z,93.84
2017-11-03T02:31:26.194Z,94.42
2017-11-03T02:32:36.646Z,94.42
2017-11-03T02:33:47.101Z,94.42
2017-11-03T02:34:57.146Z,94.13
2017-11-03T02:36:07.597Z,94.42
2017-11-03T02:37:18.055Z,94.51
2017-11-03T02:38:28.502Z,94.22
2017-11-03T02:39:38.946Z,94.32
2017-11-03T02:40:49.396Z,94.42
2017-11-03T02:41:59.869Z,94.32
2017-11-03T02:43:10.346Z,94.32
2017-11-03T02:44:20.823Z,94.51
2017-11-03T02:45:31.282Z,94.6
2017-11-03T02:46:41.733Z,94.65
2017-11-03T02:47:52.414Z,94.56
2017-11-03T02:49:02.893Z,94.37
2017-11-03T02:50:13.451Z,94.37
2017-11-03T02:51:23.647Z,94.22
2017-11-03T02:52:34.121Z,94.46
2017-11-03T02:53:44.592Z,94.46
2017-11-03T02:54:55.026Z,94.37
2017-11-03T02:56:05.490Z,94.46
2017-11-03T02:57:15.916Z,94.37
2017-11-03T02:58:26.391Z,94.46
2017-11-03T02:59:36.209Z,94.46
2017-11-03T03:00:46.675Z,94.27
2017-11-03T03:01:57.120Z,94.27
2017-11-03T03:03:07.742Z,94.46
2017-11-03T03:04:18.176Z,94.37
2017-11-03T03:05:28.462Z,94.46
2017-11-03T03:06:38.980Z,94.37
2017-11-03T03:07:49.518Z,94.37
2017-11-03T03:08:59.958Z,94.46
2017-11-03T03:10:10.421Z,94.27
2017-11-03T03:11:20.886Z,94.37
2017-11-03T03:12:31.435Z,94.08
2017-11-03T03:13:41.885Z,94.08
2017-11-03T03:14:52.056Z,94.08
2017-11-03T03:16:02.682Z,94.37
2017-11-03T03:17:13.125Z,94.46
2017-11-03T03:18:23.247Z,93.89
2017-11-03T03:19:33.830Z,93.79
2017-11-03T03:20:44.276Z,93.6
2017-11-03T03:21:54.449Z,93.7
2017-11-03T03:23:04.943Z,93.41
2017-11-03T03:24:15.386Z,93.79
2017-11-03T03:25:25.848Z,93.7
2017-11-03T03:26:36.316Z,93.89
2017-11-03T03:27:46.871Z,93.79
2017-11-03T03:28:57.312Z,93.89
2017-11-03T03:30:07.758Z,93.6
2017-11-03T03:31:18.215Z,93.7
2017-11-03T03:32:28.733Z,93.89
2017-11-03T03:33:39.182Z,93.79
2017-11-03T03:34:49.683Z,93.79
2017-11-03T03:35:59.839Z,93.7
2017-11-03T03:37:10.275Z,93.79
2017-11-03T03:38:20.499Z,93.89
2017-11-03T03:39:31.051Z,93.89
2017-11-03T03:40:41.520Z,93.7
2017-11-03T03:41:52.003Z,93.89
2017-11-03T03:43:02.526Z,93.79
2017-11-03T03:44:12.993Z,93.7
2017-11-03T03:45:23.561Z,93.6
2017-11-03T03:46:33.788Z,94.08
2017-11-03T03:47:44.253Z,94.22
2017-11-03T03:48:54.753Z,93.7
2017-11-03T03:50:05.235Z,93.6
2017-11-03T03:51:15.669Z,93.7
2017-11-03T03:52:26.142Z,93.6
2017-11-03T03:53:36.669Z,93.89
2017-11-03T03:54:47.140Z,93.79
2017-11-03T03:55:57.586Z,93.98
2017-11-03T03:57:08.031Z,93.98
2017-11-03T03:58:18.530Z,93.6
2017-11-03T03:59:28.967Z,93.7
2017-11-03T04:00:39.429Z,93.79
2017-11-03T04:01:49.914Z,93.51
2017-11-03T04:03:00.349Z,93.84
2017-11-03T04:04:10.815Z,93.89
2017-11-03T04:05:21.484Z,93.84
2017-11-03T04:06:31.928Z,93.84
2017-11-03T04:07:42.373Z,93.79
2017-11-03T04:08:52.887Z,93.84
2017-11-03T04:10:03.422Z,93.84
2017-11-03T04:11:13.883Z,93.84
2017-11-03T04:12:24.358Z,93.84
2017-11-03T04:13:34.791Z,93.74
2017-11-03T04:14:45.300Z,93.74
2017-11-03T04:15:55.436Z,93.55
2017-11-03T04:17:05.891Z,93.55
2017-11-03T04:18:16.334Z,93.93
2017-11-03T04:19:27.762Z,93.84
2017-11-03T04:20:38.010Z,93.55
2017-11-03T04:22:20.310Z,94.03
2017-11-03T04:23:30.761Z,94.13
2017-11-03T04:24:41.244Z,94.03
2017-11-03T04:25:51.693Z,94.6
2017-11-03T04:27:02.166Z,94.41
2017-11-03T04:28:12.646Z,94.41
2017-11-03T04:29:23.143Z,94.32
2017-11-03T04:30:33.575Z,94.51
2017-11-03T04:31:44.140Z,94.41
2017-11-03T04:32:54.576Z,93.93
2017-11-03T04:34:05.072Z,94.41
2017-11-03T04:35:15.627Z,94.41
2017-11-03T04:36:26.162Z,94.41
2017-11-03T04:37:36.618Z,94.41
2017-11-03T04:38:47.076Z,94.41
2017-11-03T04:39:57.652Z,94.32
2017-11-03T04:41:07.796Z,94.51
2017-11-03T04:42:18.265Z,94.32
2017-11-03T04:43:28.975Z,94.41
2017-11-03T04:44:39.536Z,94.41
2017-11-03T04:45:50.001Z,94.13
2017-11-03T04:47:00.485Z,94.13
2017-11-03T04:48:10.918Z,94.22
2017-11-03T04:49:21.408Z,94.51
2017-11-03T04:50:31.897Z,94.22
2017-11-03T04:51:42.361Z,94.51
2017-11-03T04:52:52.541Z,94.51
2017-11-03T04:54:02.977Z,94.32
2017-11-03T04:55:13.550Z,94.41
2017-11-03T04:56:23.971Z,94.41
2017-11-03T04:57:34.436Z,94.32
2017-11-03T04:58:44.910Z,94.6
2017-11-03T04:59:55.411Z,94.13
2017-11-03T05:01:05.864Z,94.22
2017-11-03T05:02:16.329Z,94.7
2017-11-03T05:03:26.759Z,94.41
2017-11-03T05:04:37.301Z,94.41
2017-11-03T05:05:47.751Z,94.13
2017-11-03T05:06:58.207Z,94.51
2017-11-03T05:08:08.224Z,94.32
2017-11-03T05:09:18.753Z,93.93
2017-11-03T05:10:29.341Z,94.51
2017-11-03T05:11:39.391Z,93.55
2017-11-03T05:12:49.953Z,93.93
2017-11-03T05:14:00.425Z,94.51
2017-11-03T05:15:10.867Z,94.32
2017-11-03T05:16:21.369Z,94.41
2017-11-03T05:17:31.928Z,94.41
2017-11-03T05:18:42.377Z,94.32
2017-11-03T05:19:52.827Z,94.41
2017-11-03T05:21:02.967Z,94.7
2017-11-03T05:22:13.451Z,94.41
2017-11-03T05:23:23.917Z,94.13
2017-11-03T05:24:34.369Z,94.6
2017-11-03T05:25:44.869Z,94.41
2017-11-03T05:26:55.038Z,94.22
2017-11-03T05:28:05.630Z,94.6
2017-11-03T05:29:16.109Z,94.51
2017-11-03T05:30:26.227Z,94.41
2017-11-03T05:31:36.785Z,94.32
2017-11-03T05:32:47.235Z,94.41
2017-11-03T05:33:57.740Z,93.55
2017-11-03T05:35:08.234Z,94.41
2017-11-03T05:36:18.693Z,94.41
2017-11-03T05:37:29.350Z,94.32
2017-11-03T05:38:39.857Z,94.51
2017-11-03T05:39:50.340Z,94.22
2017-11-03T05:41:00.948Z,94.32
2017-11-03T05:42:11.458Z,94.41
2017-11-03T05:43:21.988Z,94.22
2017-11-03T05:44:32.537Z,94.7
2017-11-03T05:45:43.063Z,94.32
2017-11-03T05:46:53.538Z,94.51
2017-11-03T05:48:03.680Z,94.7
2017-11-03T05:49:14.119Z,94.41
2017-11-03T05:50:24.602Z,94.41
2017-11-03T05:51:35.079Z,94.6
2017-11-03T05:52:45.633Z,94.13
2017-11-03T05:53:56.349Z,94.13
2017-11-03T05:55:06.807Z,94.41
2017-11-03T05:56:17.308Z,94.41
2017-11-03T05:57:27.742Z,94.89
2017-11-03T05:58:38.188Z,94.7
2017-11-03T05:59:48.327Z,94.6
2017-11-03T06:00:58.791Z,94.79
2017-11-03T06:02:09.342Z,94.89
2017-11-03T06:03:19.766Z,94.79
2017-11-03T06:04:30.254Z,94.32
2017-11-03T06:05:40.696Z,94.7
2017-11-03T06:06:50.108Z,94.7
2017-11-03T06:08:00.606Z,94.79
2017-11-03T06:09:11.241Z,94.7
2017-11-03T06:10:21.722Z,94.89
2017-11-03T06:11:32.194Z,95.08
2017-11-03T06:12:42.773Z,95.36
2017-11-03T06:13:53.366Z,95.27
2017-11-03T06:15:03.802Z,95.08
2017-11-03T06:16:14.496Z,95.27
2017-11-03T06:17:24.943Z,95.17
2017-11-03T06:18:35.444Z,95.08
2017-11-03T06:19:45.950Z,95.17
2017-11-03T06:20:56.426Z,94.89
2017-11-03T06:22:06.912Z,95.08
2017-11-03T06:23:17.365Z,94.89
2017-11-03T06:24:27.932Z,94.89
2017-11-03T06:25:37.960Z,95.17
2017-11-03T06:26:48.111Z,94.98
2017-11-03T06:27:58.742Z,95.17
2017-11-03T06:29:09.325Z,94.98
2017-11-03T06:30:19.781Z,95.27
2017-11-03T06:31:29.824Z,95.27
2017-11-03T06:32:40.282Z,95.27
2017-11-03T06:33:50.767Z,95.27
2017-11-03T06:35:01.220Z,95.08
2017-11-03T06:36:11.683Z,94.98
2017-11-03T06:37:22.117Z,95.08
2017-11-03T06:38:32.630Z,94.6
2017-11-03T06:39:43.118Z,94.7
2017-11-03T06:40:53.572Z,94.41
2017-11-03T06:42:04.161Z,94.6
2017-11-03T06:43:14.631Z,94.7
2017-11-03T06:44:25.127Z,94.6
2017-11-03T06:45:35.588Z,94.32
2017-11-03T06:46:46.073Z,94.32
2017-11-03T06:47:56.530Z,93.84
2017-11-03T06:49:07.087Z,94.32
2017-11-03T06:50:17.559Z,93.93
2017-11-03T06:51:28.062Z,93.7
2017-11-03T06:52:38.514Z,93.22
2017-11-03T06:53:48.990Z,93.36
2017-11-03T06:54:59.150Z,92.79
2017-11-03T06:56:09.616Z,92.17
2017-11-03T06:57:20.113Z,92.12
2017-11-03T06:58:30.605Z,91.16
2017-11-03T06:59:41.045Z,90.16
2017-11-03T07:00:51.543Z,89.97
2017-11-03T07:02:02.010Z,89.63
2017-11-03T07:03:12.490Z,88.48
2017-11-03T07:04:23.242Z,88.48
2017-11-03T07:05:33.371Z,87.86
2017-11-03T07:06:43.841Z,87.48
2017-11-03T07:07:54.280Z,86.47
2017-11-03T07:09:04.754Z,85.41
2017-11-03T07:10:15.301Z,84.69
2017-11-03T07:11:25.784Z,84.22
2017-11-03T07:12:36.239Z,83.83
2017-11-03T07:13:46.706Z,83.49
2017-11-03T07:14:57.419Z,82.63
2017-11-03T07:16:07.557Z,81.96
2017-11-03T07:17:19.014Z,81
2017-11-03T07:18:29.481Z,81.04
2017-11-03T07:19:39.991Z,80.08
2017-11-03T07:20:50.506Z,79.89
2017-11-03T07:22:01.057Z,78.88
2017-11-03T07:23:11.546Z,78.59
2017-11-03T07:24:22.061Z,77.73
2017-11-03T07:25:32.554Z,77.19
2017-11-03T07:26:42.997Z,76.42
2017-11-03T07:27:53.683Z,76.23
2017-11-03T07:29:04.145Z,75.85
2017-11-03T07:30:14.598Z,75.27
2017-11-03T07:31:25.281Z,74.93
2017-11-03T07:32:35.410Z,74.73
2017-11-03T07:33:45.890Z,74.31
2017-11-03T07:34:56.353Z,74.76
2017-11-03T07:36:06.998Z,74.85
2017-11-03T07:37:17.447Z,75.23
2017-11-03T07:38:27.938Z,75.87
2017-11-03T07:39:38.444Z,75.29
2017-11-03T07:40:48.935Z,74.91
2017-11-03T07:41:59.538Z,73.99
2017-11-03T07:43:10.008Z,73.61
2017-11-03T07:44:20.651Z,73.61
2017-11-03T07:45:31.145Z,73.07
2017-11-03T07:46:41.296Z,72.63
2017-11-03T07:47:51.778Z,71.76
2017-11-03T07:49:02.466Z,71.41
2017-11-03T07:50:12.940Z,70.49
2017-11-03T07:51:23.575Z,69.91
2017-11-03T07:52:34.188Z,69.85
2017-11-03T07:53:44.630Z,69.72
2017-11-03T07:54:55.133Z,70.01
2017-11-03T07:56:05.584Z,69.24
2017-11-03T07:57:16.037Z,68.57
2017-11-03T07:58:26.500Z,67.83
2017-11-03T07:59:36.406Z,67.07
2017-11-03T08:00:46.870Z,67.25
2017-11-03T08:01:57.352Z,66.2
2017-11-03T08:03:07.837Z,66.14
2017-11-03T08:04:18.305Z,66.42
2017-11-03T08:05:28.742Z,65.59
2017-11-03T08:06:39.255Z,64.47
2017-11-03T08:07:49.726Z,64.08
2017-11-03T08:09:00.459Z,63.64
2017-11-03T08:10:10.936Z,62.77
2017-11-03T08:11:21.397Z,61.93
2017-11-03T08:13:47.727Z,60.58
2017-11-03T08:14:58.249Z,60.13
2017-11-03T08:16:08.710Z,58.97
2017-11-03T08:17:19.164Z,58.88
2017-11-03T08:18:29.709Z,57.85
2017-11-03T08:19:40.225Z,56.98
2017-11-03T08:20:50.667Z,56.52
2017-11-03T08:22:01.124Z,56.52
2017-11-03T08:23:11.611Z,55.56
2017-11-03T08:24:21.803Z,55.27
2017-11-03T08:25:32.319Z,55.46
2017-11-03T08:26:42.803Z,55.01
2017-11-03T08:27:53.273Z,52.91
2017-11-03T08:29:03.396Z,51.46
2017-11-03T08:30:13.959Z,52.72
2017-11-03T08:31:24.453Z,50.79
2017-11-03T08:32:34.922Z,51.37
2017-11-03T08:33:45.462Z,50.89
2017-11-03T08:34:56.007Z,51.27
2017-11-03T08:36:06.558Z,51.44
2017-11-03T08:37:17.098Z,52.11
2017-11-03T08:38:27.543Z,51.44
2017-11-03T08:39:38.019Z,50.79
2017-11-03T08:40:48.467Z,49.55
2017-11-03T08:41:59.029Z,49.27
2017-11-03T08:43:09.491Z,48.59
2017-11-03T08:44:19.629Z,47.43
2017-11-03T08:45:30.114Z,47.53
2017-11-03T08:46:40.597Z,48.59
2017-11-03T08:47:51.128Z,49.37
2017-11-03T08:49:01.654Z,48.59
2017-11-03T08:50:12.098Z,47.99
2017-11-03T08:51:22.792Z,47.5
2017-11-03T08:52:33.282Z,49.32
2017-11-03T08:53:43.771Z,49.53
2017-11-03T08:54:54.415Z,50.3
2017-11-03T08:56:04.561Z,50.59
2017-11-03T08:57:15.025Z,49.84
2017-11-03T08:58:25.654Z,50.9
2017-11-03T08:59:36.238Z,50.88
2017-11-03T09:00:46.738Z,50.04
2017-11-03T09:01:57.265Z,49.94
2017-11-03T09:03:07.663Z,49.29
2017-11-03T09:04:18.186Z,49.12
2017-11-03T09:05:28.663Z,48.35
2017-11-03T09:06:39.132Z,47.22
2017-11-03T09:07:49.574Z,47.99
2017-11-03T09:08:59.752Z,47.14
2017-11-03T09:10:10.487Z,47.72
2017-11-03T09:11:21.002Z,48.79
2017-11-03T09:12:31.472Z,48.37
2017-11-03T09:13:41.951Z,47.99
2017-11-03T09:14:52.089Z,46.56
2017-11-03T09:16:02.153Z,45.89
2017-11-03T09:17:12.644Z,45.4
2017-11-03T09:18:23.278Z,46.37
2017-11-03T09:19:33.752Z,47.65
2017-11-03T09:20:43.914Z,46.3
2017-11-03T09:21:54.080Z,45.91
2017-11-03T09:23:04.670Z,46.12
2017-11-03T09:24:15.132Z,45.06
2017-11-03T09:25:25.606Z,44.21
2017-11-03T09:26:36.088Z,41.62
2017-11-03T09:27:49.327Z,42.28
2017-11-03T09:29:02.000Z,43.15
2017-11-03T09:30:12.172Z,43.34
2017-11-03T09:31:23.667Z,43.05
2017-11-03T09:32:35.338Z,42.86
2017-11-03T09:33:45.937Z,41.79
2017-11-03T09:34:56.610Z,42.96
2017-11-03T09:36:06.845Z,42.1
2017-11-03T09:37:17.381Z,40.94
2017-11-03T09:38:27.866Z,41.04
2017-11-03T09:39:38.604Z,41.6
2017-11-03T09:40:49.094Z,41.89
2017-11-03T09:41:59.564Z,41.99
2017-11-03T09:43:10.120Z,41.41
2017-11-03T09:44:20.609Z,41.33
2017-11-03T09:45:31.155Z,42
2017-11-03T09:46:41.412Z,41.55
2017-11-03T09:47:52.014Z,41.06
2017-11-03T09:49:02.172Z,40.96
2017-11-03T09:50:12.659Z,39.92
2017-11-03T09:51:22.795Z,39.92
2017-11-03T09:52:33.442Z,39.92
2017-11-03T09:53:43.523Z,40.59
2017-11-03T09:54:54.031Z,40.69
2017-11-03T09:56:04.545Z,38.56
2017-11-03T09:57:14.712Z,37.21
2017-11-03T09:58:25.251Z,38.54
2017-11-03T09:59:35.795Z,39.97
2017-11-03T10:00:46.364Z,39.95
2017-11-03T10:01:56.838Z,40.83
2017-11-03T10:03:07.317Z,40.63
2017-11-03T10:04:17.800Z,40.26
2017-11-03T10:05:28.331Z,38.62
2017-11-03T10:06:38.802Z,37.26
2017-11-03T10:07:49.274Z,38.89
2017-11-03T10:08:59.767Z,39.55
2017-11-03T10:10:10.311Z,40.13
2017-11-03T10:11:20.854Z,40.3
2017-11-03T10:12:31.366Z,40.03
2017-11-03T10:13:41.853Z,39.94
2017-11-03T10:14:52.367Z,40.03
2017-11-03T10:16:02.514Z,39.28
2017-11-03T10:17:12.712Z,38.12
2017-11-03T10:18:23.194Z,38.89
2017-11-03T10:19:33.695Z,38.21
2017-11-03T10:20:44.286Z,39.37
2017-11-03T10:21:55.015Z,39.67
2017-11-03T10:23:05.518Z,39.84
2017-11-03T10:24:16.071Z,39.64
2017-11-03T10:25:26.823Z,40.01
2017-11-03T10:26:37.326Z,41.23
2017-11-03T10:27:47.856Z,41.69
2017-11-03T10:28:58.358Z,42.15
2017-11-03T10:30:08.852Z,43.12
2017-11-03T10:31:19.443Z,43.58
2017-11-03T10:32:29.958Z,44.42
2017-11-03T10:33:40.504Z,44.52
2017-11-03T10:34:50.996Z,45.48
2017-11-03T10:36:01.470Z,45.94
2017-11-03T10:37:11.981Z,45.83
2017-11-03T10:38:22.147Z,45.94
2017-11-03T10:39:32.730Z,45.65
2017-11-03T10:40:43.220Z,45.2
2017-11-03T10:41:53.911Z,44.42
2017-11-03T10:43:04.443Z,44.35
2017-11-03T10:44:14.664Z,43.1
2017-11-03T10:45:25.168Z,43.31
2017-11-03T10:46:35.749Z,42.27
2017-11-03T10:47:46.271Z,42.1
2017-11-03T10:48:56.774Z,41.13
2017-11-03T10:50:07.310Z,41.25
2017-11-03T10:51:17.807Z,41.25
2017-11-03T10:52:28.345Z,40.88
2017-11-03T10:53:38.870Z,40.23
2017-11-03T10:54:49.355Z,39.57
2017-11-03T10:55:59.889Z,38.12
2017-11-03T10:57:10.359Z,38.91
2017-11-03T10:58:20.887Z,38.53
2017-11-03T10:59:31.360Z,37.36
2017-11-03T11:00:41.836Z,38.43
2017-11-03T11:01:52.355Z,36.7
2017-11-03T11:03:02.851Z,37.67
2017-11-03T11:04:13.365Z,38.06
2017-11-03T11:05:23.869Z,37.28
2017-11-03T11:06:34.364Z,36.8
2017-11-03T11:07:44.869Z,37.38
2017-11-03T11:08:55.355Z,37.67
2017-11-03T11:10:05.835Z,37.38
2017-11-03T11:11:16.344Z,37.57
2017-11-03T11:12:27.059Z,37.07
2017-11-03T11:13:37.686Z,36.88
2017-11-03T11:14:48.249Z,36
2017-11-03T11:15:58.719Z,36.98
2017-11-03T11:17:09.268Z,37.15
2017-11-03T11:18:19.774Z,37.15
2017-11-03T11:19:30.303Z,37.46
2017-11-03T11:20:40.950Z,36.49
2017-11-03T11:21:51.499Z,37.07
2017-11-03T11:23:01.652Z,37.24
2017-11-03T11:24:12.234Z,37.34
2017-11-03T11:25:22.722Z,37.32
2017-11-03T11:26:33.204Z,37.9
2017-11-03T11:27:43.710Z,38.37
2017-11-03T11:28:54.213Z,38.18
2017-11-03T11:30:04.962Z,38.56
2017-11-03T11:31:15.470Z,39.51
2017-11-03T11:32:26.022Z,39.51
2017-11-03T11:33:36.652Z,39.78
2017-11-03T11:34:47.131Z,40.63
2017-11-03T11:35:57.715Z,40.9
2017-11-03T11:37:08.239Z,41.72
2017-11-03T11:38:18.722Z,42.3
2017-11-03T11:39:29.266Z,42.96
2017-11-03T11:40:39.367Z,43.51
2017-11-03T11:41:49.850Z,44.48
2017-11-03T11:43:00.371Z,44.26
2017-11-03T11:44:10.554Z,45.42
2017-11-03T11:45:21.026Z,45.68
2017-11-03T11:46:31.546Z,46.36
2017-11-03T11:47:42.025Z,46.64
2017-11-03T11:48:52.617Z,47.2
2017-11-03T11:50:03.138Z,47.85
2017-11-03T11:51:13.744Z,48.52
2017-11-03T11:52:24.251Z,48.71
2017-11-03T11:53:34.734Z,48.74
2017-11-03T11:54:45.261Z,49.12
2017-11-03T11:55:55.736Z,47.97
2017-11-03T11:57:06.219Z,47.31
2017-11-03T11:58:17.024Z,47.15
2017-11-03T11:59:27.481Z,46.57
2017-11-03T12:00:37.998Z,45.92
2017-11-03T12:01:48.563Z,45.17
2017-11-03T12:02:59.055Z,44.32
2017-11-03T12:04:09.516Z,45.1
2017-11-03T12:05:19.718Z,44.54
2017-11-03T12:06:29.771Z,44.18
2017-11-03T12:07:40.296Z,43.7
2017-11-03T12:08:50.811Z,42.93
2017-11-03T12:10:00.879Z,42.93
2017-11-03T12:11:11.363Z,42.27
2017-11-03T12:12:21.910Z,42.36
2017-11-03T12:13:32.398Z,42.27
2017-11-03T12:14:42.902Z,41.4
2017-11-03T12:15:53.361Z,41.03
2017-11-03T12:17:03.839Z,40.84
2017-11-03T12:18:14.330Z,41.03
2017-11-03T12:19:24.868Z,41.42
2017-11-03T12:20:35.576Z,40.65
2017-11-03T12:21:46.166Z,40.55
2017-11-03T12:22:56.654Z,40.84
2017-11-03T12:24:06.844Z,41.03
2017-11-03T12:25:17.360Z,40.86
2017-11-03T12:26:28.068Z,40.96
2017-11-03T12:27:38.579Z,38.25
2017-11-03T12:28:49.058Z,39.61
2017-11-03T12:29:59.633Z,39.8
2017-11-03T12:31:10.149Z,39.78
2017-11-03T12:32:20.700Z,40.36
2017-11-03T12:33:31.213Z,40.45
2017-11-03T12:34:41.728Z,40.45
2017-11-03T12:35:52.290Z,40.65
2017-11-03T12:37:02.812Z,40.45
2017-11-03T12:38:12.841Z,40.72
2017-11-03T12:39:23.376Z,40.82
2017-11-03T12:40:33.864Z,40.82
2017-11-03T12:41:44.439Z,41.02
2017-11-03T12:42:54.915Z,41.5
2017-11-03T12:44:05.424Z,41.48
2017-11-03T12:45:16.071Z,41.38
2017-11-03T12:46:26.569Z,41.67
2017-11-03T12:47:37.129Z,41.67
2017-11-03T12:48:47.252Z,41.57
2017-11-03T12:49:57.851Z,41.48
2017-11-03T12:51:08.332Z,42.03
2017-11-03T12:52:18.864Z,42.3
2017-11-03T12:53:29.392Z,42.88
2017-11-03T12:54:39.875Z,42.49
2017-11-03T12:55:50.368Z,42.79
2017-11-03T12:57:00.925Z,42.4
2017-11-03T12:58:11.411Z,42.96
2017-11-03T12:59:21.951Z,43.05
2017-11-03T13:00:32.422Z,43.63
2017-11-03T13:01:42.968Z,43.73
2017-11-03T13:02:53.469Z,43.92
2017-11-03T13:04:04.059Z,44.38
2017-11-03T13:05:14.569Z,44.38
2017-11-03T13:06:25.108Z,44.57
2017-11-03T13:07:35.280Z,44.38
2017-11-03T13:08:45.759Z,44.76
2017-11-03T13:09:55.952Z,45.22
2017-11-03T13:11:06.540Z,45.51
2017-11-03T13:12:17.416Z,45.99
2017-11-03T13:13:27.888Z,46.28
2017-11-03T13:14:38.396Z,45.78
2017-11-03T13:15:49.035Z,46.16
2017-11-03T13:16:59.492Z,45.97
2017-11-03T13:18:09.996Z,46.16
2017-11-03T13:19:20.266Z,46.62
2017-11-03T13:20:30.790Z,46.91
2017-11-03T13:21:41.304Z,46.81
2017-11-03T13:22:51.813Z,47.17
2017-11-03T13:24:02.284Z,46.89
2017-11-03T13:25:12.795Z,47.53
2017-11-03T13:26:23.296Z,47.82
2017-11-03T13:27:33.372Z,48.09
2017-11-03T13:28:44.133Z,48.18
2017-11-03T13:29:54.752Z,48.76
2017-11-03T13:31:05.235Z,49.02
2017-11-03T13:32:15.743Z,49.12
2017-11-03T13:33:27.307Z,49.6
2017-11-03T13:34:38.038Z,49.6
2017-11-03T13:35:48.537Z,49.67
2017-11-03T13:36:59.207Z,49.76
2017-11-03T13:38:09.709Z,50.05
2017-11-03T13:39:20.216Z,50.05
2017-11-03T13:40:30.697Z,50.73
2017-11-03T13:41:41.236Z,50.92
2017-11-03T13:42:51.720Z,51.4
2017-11-03T13:44:01.883Z,51.49
2017-11-03T13:45:12.439Z,51.46
2017-11-03T13:46:22.966Z,51.49
2017-11-03T13:47:33.490Z,51.56
2017-11-03T13:48:44.001Z,51.78
2017-11-03T13:49:54.609Z,51.97
2017-11-03T13:51:19.547Z,51.49
2017-11-03T13:52:29.728Z,51.37
2017-11-03T13:53:40.246Z,51.46
2017-11-03T13:54:50.814Z,52.36
2017-11-03T13:56:01.317Z,52.14
2017-11-03T13:57:11.824Z,52.14
2017-11-03T13:58:22.328Z,52.14
2017-11-03T13:59:32.515Z,52.33
2017-11-03T14:00:43.103Z,52.33
2017-11-03T14:01:53.632Z,52.23
2017-11-03T14:03:04.121Z,52.69
2017-11-03T14:04:14.292Z,52.4
2017-11-03T14:05:24.864Z,52.59
2017-11-03T14:06:35.316Z,52.87
2017-11-03T14:07:45.796Z,53.36
2017-11-03T14:08:55.961Z,53.07
2017-11-03T14:10:06.702Z,53.55
2017-11-03T14:11:18.265Z,53.45
2017-11-03T14:12:28.756Z,53.93
2017-11-03T14:13:39.281Z,53.64
2017-11-03T14:14:49.802Z,54.32
2017-11-03T14:16:00.375Z,54.32
2017-11-03T14:17:10.892Z,54.32
2017-11-03T14:18:21.381Z,54.32
2017-11-03T14:19:31.886Z,54.12
2017-11-03T14:20:42.479Z,54.12
2017-11-03T14:21:53.015Z,54.03
2017-11-03T14:23:03.550Z,54.6
2017-11-03T14:24:14.067Z,54.5
2017-11-03T14:25:24.241Z,54.22
2017-11-03T14:26:34.729Z,54.41
2017-11-03T14:27:45.224Z,54.6
2017-11-03T14:28:55.646Z,54.6
2017-11-03T14:30:06.137Z,54.32
2017-11-03T14:31:16.658Z,54.7
2017-11-03T14:32:27.174Z,54.32
2017-11-03T14:33:37.813Z,54.41
2017-11-03T14:34:48.325Z,54.7
2017-11-03T14:35:58.848Z,54.6
2017-11-03T14:37:09.022Z,54.41
2017-11-03T14:38:19.513Z,54.41
2017-11-03T14:39:29.663Z,54.6
2017-11-03T14:40:40.248Z,54.32
2017-11-03T14:41:50.739Z,55.15
2017-11-03T14:43:01.224Z,54.77
2017-11-03T14:44:11.407Z,54.99
2017-11-03T14:45:22.024Z,54.99
2017-11-03T14:46:32.491Z,55.05
2017-11-03T14:47:42.980Z,55.34
2017-11-03T14:48:53.461Z,55.34
2017-11-03T14:50:03.972Z,55.34
2017-11-03T14:51:14.693Z,55.44
2017-11-03T14:52:25.231Z,55.65
2017-11-03T14:53:35.713Z,56.01
2017-11-03T14:54:46.322Z,56.3
2017-11-03T14:55:57.018Z,56.3
2017-11-03T14:57:07.529Z,56.1
2017-11-03T14:58:18.100Z,56.1
2017-11-03T14:59:28.624Z,56.2
2017-11-03T15:00:39.123Z,56.59
2017-11-03T15:01:49.586Z,56.49
2017-11-03T15:03:00.050Z,56.3
2017-11-03T15:04:10.533Z,56.39
2017-11-03T15:05:21.050Z,56.97
2017-11-03T15:06:31.499Z,56.77
2017-11-03T15:07:41.684Z,56.77
2017-11-03T15:08:52.158Z,56.75
2017-11-03T15:10:02.664Z,57.32
2017-11-03T15:11:13.167Z,57.23
2017-11-03T15:12:23.364Z,57.8
2017-11-03T15:13:33.854Z,57.9
2017-11-03T15:14:44.480Z,57.51